Time,TemperatureF,DewpointF,PressureIn,WindDirection,WindDirectionDegrees,WindSpeedMPH,WindSpeedGustMPH,Humidity,HourlyPrecipIn,Conditions,Clouds,dailyrainin,SolarRadiationWatts/m^2,SoftwareType,DateUTC
2013-10-26 00:01:00,40.7,37.8,30.12,South,186,2.0,6.0,89,0.00,,,0.00,0,WxPro DR1,2013-10-26 04:01:00,
2013-10-26 00:02:00,40.8,37.8,30.12,SSW,209,4.0,7.0,89,0.00,,,0.00,0,WxPro DR1,2013-10-26 04:02:00,
2013-10-26 00:07:00,40.9,37.9,30.12,South,183,0.0,7.0,89,0.00,,,0.00,0,WxPro DR1,2013-10-26 04:07:00,
2013-10-26 00:12:00,41.0,38.0,30.12,South,179,4.0,7.0,89,0.00,,,0.00,0,WxPro DR1,2013-10-26 04:12:00,
2013-10-26 00:17:00,41.1,38.1,30.12,SSW,196,3.0,6.0,89,0.00,,,0.00,0,WxPro DR1,2013-10-26 04:17:00,
2013-10-26 00:22:00,41.1,38.1,30.11,SSW,192,2.0,6.0,89,0.00,,,0.00,0,WxPro DR1,2013-10-26 04:22:00,
2013-10-26 00:27:00,41.1,38.1,30.11,South,183,3.0,9.0,89,0.00,,,0.00,0,WxPro DR1,2013-10-26 04:27:00,
2013-10-26 00:32:00,41.1,38.1,30.11,South,174,0.0,9.0,89,0.00,,,0.00,0,WxPro DR1,2013-10-26 04:32:00,
2013-10-26 00:37:00,41.1,38.1,30.10,South,176,4.0,10.0,89,0.00,,,0.00,0,WxPro DR1,2013-10-26 04:37:00,
2013-10-26 00:42:00,41.1,38.1,30.10,SSW,192,2.0,10.0,89,0.00,,,0.00,0,WxPro DR1,2013-10-26 04:42:00,
2013-10-26 00:47:00,41.1,38.1,30.11,SSW,194,0.0,6.0,89,0.00,,,0.00,0,WxPro DR1,2013-10-26 04:47:00,
2013-10-26 00:52:00,41.2,38.2,30.11,South,183,2.0,6.0,89,0.00,,,0.00,0,WxPro DR1,2013-10-26 04:52:00,
2013-10-26 00:57:00,41.2,38.2,30.10,South,182,0.0,8.0,89,0.00,,,0.00,0,WxPro DR1,2013-10-26 04:57:00,
2013-10-26 01:02:00,41.2,38.2,30.10,South,183,0.0,8.0,89,0.00,,,0.00,0,WxPro DR1,2013-10-26 05:02:00,
2013-10-26 01:07:00,41.2,38.2,30.11,South,187,4.0,6.0,89,0.00,,,0.00,0,WxPro DR1,2013-10-26 05:07:00,
2013-10-26 01:12:00,41.2,37.9,30.10,South,177,0.0,10.0,88,0.00,,,0.00,0,WxPro DR1,2013-10-26 05:12:00,
2013-10-26 01:17:00,41.3,38.0,30.10,South,185,0.0,10.0,88,0.00,,,0.00,0,WxPro DR1,2013-10-26 05:17:00,
2013-10-26 01:22:00,41.2,37.9,30.10,SSW,205,2.0,5.0,88,0.00,,,0.00,0,WxPro DR1,2013-10-26 05:22:00,
2013-10-26 01:27:00,41.2,37.9,30.10,SW,215,3.0,6.0,88,0.00,,,0.00,0,WxPro DR1,2013-10-26 05:27:00,
2013-10-26 01:32:00,41.2,37.9,30.10,SSE,168,0.0,6.0,88,0.00,,,0.00,0,WxPro DR1,2013-10-26 05:32:00,
2013-10-26 01:37:00,41.2,37.6,30.10,SW,226,0.0,7.0,87,0.00,,,0.00,0,WxPro DR1,2013-10-26 05:37:00,
2013-10-26 01:42:00,41.3,37.6,30.10,SW,236,2.0,7.0,87,0.00,,,0.00,0,WxPro DR1,2013-10-26 05:42:00,
2013-10-26 01:47:00,41.3,37.4,30.09,SSW,209,6.0,7.0,86,0.00,,,0.00,0,WxPro DR1,2013-10-26 05:47:00,
2013-10-26 01:52:00,41.3,37.4,30.09,WSW,239,0.0,7.0,86,0.00,,,0.00,0,WxPro DR1,2013-10-26 05:52:00,
2013-10-26 01:57:00,41.2,37.1,30.09,South,179,0.0,5.0,85,0.00,,,0.00,0,WxPro DR1,2013-10-26 05:57:00,
2013-10-26 02:02:00,41.2,37.3,30.09,South,179,0.0,5.0,86,0.00,,,0.00,0,WxPro DR1,2013-10-26 06:02:00,
2013-10-26 02:07:00,41.2,37.3,30.09,South,179,0.0,3.0,86,0.00,,,0.00,0,WxPro DR1,2013-10-26 06:07:00,
2013-10-26 02:12:00,41.1,37.2,30.09,South,179,0.0,3.0,86,0.00,,,0.00,0,WxPro DR1,2013-10-26 06:12:00,
2013-10-26 02:17:00,41.0,37.5,30.08,South,179,0.0,2.0,87,0.00,,,0.00,0,WxPro DR1,2013-10-26 06:17:00,
2013-10-26 02:22:00,40.9,37.4,30.08,West,265,3.0,6.0,87,0.00,,,0.00,0,WxPro DR1,2013-10-26 06:22:00,
2013-10-26 02:27:00,40.8,37.5,30.08,West,267,0.0,6.0,88,0.00,,,0.00,0,WxPro DR1,2013-10-26 06:27:00,
2013-10-26 02:32:00,40.7,37.4,30.08,WNW,296,1.0,5.0,88,0.00,,,0.00,0,WxPro DR1,2013-10-26 06:32:00,
2013-10-26 02:37:00,40.5,37.5,30.08,West,277,0.0,6.0,89,0.00,,,0.00,0,WxPro DR1,2013-10-26 06:37:00,
2013-10-26 02:42:00,40.3,37.3,30.08,West,277,1.0,6.0,89,0.00,,,0.00,0,WxPro DR1,2013-10-26 06:42:00,
2013-10-26 02:47:00,40.2,37.2,30.07,WNW,283,2.0,7.0,89,0.00,,,0.00,0,WxPro DR1,2013-10-26 06:47:00,
2013-10-26 02:52:00,40.0,37.1,30.07,West,280,2.0,7.0,89,0.00,,,0.00,0,WxPro DR1,2013-10-26 06:52:00,
2013-10-26 02:57:00,40.0,37.3,30.07,West,280,0.0,4.0,90,0.00,,,0.00,0,WxPro DR1,2013-10-26 06:57:00,
2013-10-26 03:02:00,39.8,37.1,30.07,West,280,0.0,2.0,90,0.00,,,0.00,0,WxPro DR1,2013-10-26 07:02:00,
2013-10-26 03:07:00,39.8,37.1,30.06,West,280,1.0,2.0,90,0.00,,,0.00,0,WxPro DR1,2013-10-26 07:07:00,
2013-10-26 03:12:00,39.7,37.0,30.06,West,280,0.0,4.0,90,0.00,,,0.00,0,WxPro DR1,2013-10-26 07:12:00,
2013-10-26 03:17:00,39.6,37.2,30.06,West,280,0.0,4.0,91,0.00,,,0.00,0,WxPro DR1,2013-10-26 07:17:00,
2013-10-26 03:22:00,39.6,37.2,30.05,West,280,0.0,1.0,91,0.00,,,0.00,0,WxPro DR1,2013-10-26 07:22:00,
2013-10-26 03:27:00,39.5,37.1,30.05,West,280,0.0,1.0,91,0.00,,,0.00,0,WxPro DR1,2013-10-26 07:27:00,
2013-10-26 03:32:00,39.5,37.1,30.05,West,280,0.0,0.0,91,0.00,,,0.00,0,WxPro DR1,2013-10-26 07:32:00,
2013-10-26 03:37:00,39.4,37.0,30.05,West,280,0.0,2.0,91,0.00,,,0.00,0,WxPro DR1,2013-10-26 07:37:00,
2013-10-26 03:42:00,39.4,37.0,30.04,West,280,0.0,2.0,91,0.00,,,0.00,0,WxPro DR1,2013-10-26 07:42:00,
2013-10-26 03:47:00,39.4,37.0,30.03,West,280,0.0,0.0,91,0.00,,,0.00,0,WxPro DR1,2013-10-26 07:47:00,
2013-10-26 03:52:00,39.3,36.9,30.03,West,280,0.0,1.0,91,0.00,,,0.00,0,WxPro DR1,2013-10-26 07:52:00,
2013-10-26 03:57:00,39.3,37.2,30.02,West,280,0.0,1.0,92,0.00,,,0.00,0,WxPro DR1,2013-10-26 07:57:00,
2013-10-26 04:02:00,39.3,37.2,30.02,West,280,0.0,0.0,92,0.00,,,0.00,0,WxPro DR1,2013-10-26 08:02:00,
2013-10-26 04:07:00,39.3,37.2,30.02,West,280,0.0,0.0,92,0.00,,,0.00,0,WxPro DR1,2013-10-26 08:07:00,
2013-10-26 04:12:00,39.3,37.2,30.02,West,280,0.0,0.0,92,0.00,,,0.00,0,WxPro DR1,2013-10-26 08:12:00,
2013-10-26 04:17:00,39.3,37.2,30.01,West,280,0.0,2.0,92,0.00,,,0.00,0,WxPro DR1,2013-10-26 08:17:00,
2013-10-26 04:22:00,39.3,37.4,30.01,West,280,0.0,2.0,93,0.00,,,0.00,0,WxPro DR1,2013-10-26 08:22:00,
2013-10-26 04:27:00,39.3,37.5,30.00,West,280,0.0,2.0,93,0.00,,,0.00,0,WxPro DR1,2013-10-26 08:27:00,
2013-10-26 04:32:00,39.3,37.5,30.00,West,280,0.0,2.0,93,0.00,,,0.00,0,WxPro DR1,2013-10-26 08:32:00,
2013-10-26 04:37:00,39.3,37.5,30.00,West,280,0.0,1.0,93,0.00,,,0.00,0,WxPro DR1,2013-10-26 08:37:00,
2013-10-26 04:42:00,39.3,37.4,30.01,West,280,0.0,1.0,93,0.00,,,0.00,0,WxPro DR1,2013-10-26 08:42:00,
2013-10-26 04:47:00,39.3,37.4,30.00,West,279,0.0,4.0,93,0.00,,,0.00,0,WxPro DR1,2013-10-26 08:47:00,
2013-10-26 04:52:00,39.4,37.5,30.00,West,279,0.0,4.0,93,0.00,,,0.00,0,WxPro DR1,2013-10-26 08:52:00,
2013-10-26 04:57:00,39.5,37.4,30.00,West,278,1.0,3.0,92,0.00,,,0.00,0,WxPro DR1,2013-10-26 08:57:00,
2013-10-26 05:02:00,39.7,37.3,29.99,West,277,0.0,3.0,91,0.00,,,0.00,0,WxPro DR1,2013-10-26 09:02:00,
2013-10-26 05:07:00,39.9,37.2,29.99,West,277,0.0,3.0,90,0.00,,,0.00,0,WxPro DR1,2013-10-26 09:07:00,
2013-10-26 05:12:00,40.1,37.0,29.99,West,278,0.0,2.0,88,0.00,,,0.00,0,WxPro DR1,2013-10-26 09:12:00,
2013-10-26 05:17:00,40.3,36.7,29.99,South,170,1.0,5.0,87,0.00,,,0.00,0,WxPro DR1,2013-10-26 09:17:00,
2013-10-26 05:22:00,40.6,36.1,29.99,South,171,2.0,5.0,84,0.00,,,0.00,0,WxPro DR1,2013-10-26 09:22:00,
2013-10-26 05:27:00,40.9,35.4,29.98,South,171,0.0,5.0,81,0.00,,,0.00,0,WxPro DR1,2013-10-26 09:27:00,
2013-10-26 05:32:00,41.2,34.8,29.98,South,171,0.0,6.0,78,0.00,,,0.00,0,WxPro DR1,2013-10-26 09:32:00,
2013-10-26 05:37:00,41.7,34.1,29.98,South,188,0.0,7.0,74,0.00,,,0.00,0,WxPro DR1,2013-10-26 09:37:00,
2013-10-26 05:42:00,42.0,33.3,29.98,South,169,3.0,9.0,71,0.00,,,0.00,0,WxPro DR1,2013-10-26 09:42:00,
2013-10-26 05:47:00,42.3,33.2,29.98,SSE,168,1.0,9.0,70,0.00,,,0.00,0,WxPro DR1,2013-10-26 09:47:00,
2013-10-26 05:52:00,42.3,32.9,29.97,South,176,0.0,5.0,69,0.00,,,0.00,0,WxPro DR1,2013-10-26 09:52:00,
2013-10-26 05:57:00,42.4,32.5,29.97,South,188,0.0,9.0,68,0.00,,,0.00,0,WxPro DR1,2013-10-26 09:57:00,
2013-10-26 06:02:00,42.6,32.1,29.97,South,186,3.0,9.0,66,0.00,,,0.00,0,WxPro DR1,2013-10-26 10:02:00,
2013-10-26 06:07:00,42.7,32.1,29.97,SSE,168,3.0,9.0,66,0.00,,,0.00,0,WxPro DR1,2013-10-26 10:07:00,
2013-10-26 06:12:00,42.8,32.1,29.97,South,174,2.0,7.0,66,0.00,,,0.00,0,WxPro DR1,2013-10-26 10:12:00,
2013-10-26 06:17:00,42.8,31.5,29.97,South,169,1.0,18.0,64,0.00,,,0.00,0,WxPro DR1,2013-10-26 10:17:00,
2013-10-26 06:22:00,42.9,31.8,29.97,South,177,1.0,18.0,65,0.00,,,0.00,0,WxPro DR1,2013-10-26 10:22:00,
2013-10-26 06:27:00,42.8,31.9,29.96,SSW,195,2.0,13.0,65,0.00,,,0.00,0,WxPro DR1,2013-10-26 10:27:00,
2013-10-26 06:32:00,42.8,31.8,29.96,SSE,165,4.0,12.0,65,0.00,,,0.00,0,WxPro DR1,2013-10-26 10:32:00,
2013-10-26 06:37:00,42.7,31.4,29.96,South,184,0.0,12.0,64,0.00,,,0.00,0,WxPro DR1,2013-10-26 10:37:00,
2013-10-26 06:42:00,42.7,31.4,29.96,SSW,201,3.0,11.0,64,0.00,,,0.00,0,WxPro DR1,2013-10-26 10:42:00,
2013-10-26 06:47:00,42.7,31.4,29.96,South,176,2.0,12.0,64,0.00,,,0.00,0,WxPro DR1,2013-10-26 10:47:00,
2013-10-26 06:52:00,42.7,31.1,29.95,SSW,209,2.0,12.0,63,0.00,,,0.00,0,WxPro DR1,2013-10-26 10:52:00,
2013-10-26 06:57:00,42.7,31.1,29.95,SE,138,3.0,10.0,63,0.00,,,0.00,0,WxPro DR1,2013-10-26 10:57:00,
2013-10-26 07:02:00,42.6,31.1,29.95,SSW,211,2.0,10.0,63,0.00,,,0.00,0,WxPro DR1,2013-10-26 11:02:00,
2013-10-26 07:07:00,42.5,31.2,29.95,SSW,205,4.0,12.0,64,0.00,,,0.00,0,WxPro DR1,2013-10-26 11:07:00,
2013-10-26 07:12:00,42.4,30.7,29.95,SSE,159,3.0,12.0,63,0.00,,,0.00,0,WxPro DR1,2013-10-26 11:12:00,
2013-10-26 07:17:00,42.4,31.1,29.94,South,177,2.0,12.0,64,0.00,,,0.00,0,WxPro DR1,2013-10-26 11:17:00,
2013-10-26 07:22:00,42.3,31.0,29.94,SSW,192,0.0,11.0,64,0.00,,,0.00,0,WxPro DR1,2013-10-26 11:22:00,
2013-10-26 07:27:00,42.2,31.1,29.94,South,187,2.0,10.0,65,0.00,,,0.00,0,WxPro DR1,2013-10-26 11:27:00,
2013-10-26 07:32:00,42.1,31.0,29.94,SSE,153,5.0,12.0,65,0.00,,,0.00,0,WxPro DR1,2013-10-26 11:32:00,
2013-10-26 07:37:00,42.0,31.0,29.93,South,187,4.0,17.0,64,0.00,,,0.00,0,WxPro DR1,2013-10-26 11:37:00,
2013-10-26 07:42:00,42.1,30.9,29.93,South,180,0.0,17.0,64,0.00,,,0.00,0,WxPro DR1,2013-10-26 11:42:00,
2013-10-26 07:47:00,42.0,31.0,29.93,SSW,210,10.0,15.0,65,0.00,,,0.00,0,WxPro DR1,2013-10-26 11:47:00,
2013-10-26 07:52:00,42.0,31.1,29.93,SSE,167,0.0,14.0,65,0.00,,,0.00,7,WxPro DR1,2013-10-26 11:52:00,
2013-10-26 07:57:00,41.9,30.7,29.93,SSE,167,4.0,16.0,64,0.00,,,0.00,16,WxPro DR1,2013-10-26 11:57:00,
2013-10-26 08:02:00,41.9,31.0,29.92,South,169,1.0,16.0,65,0.00,,,0.00,23,WxPro DR1,2013-10-26 12:02:00,
2013-10-26 08:07:00,41.9,31.0,29.92,South,171,5.0,17.0,65,0.00,,,0.00,25,WxPro DR1,2013-10-26 12:07:00,
2013-10-26 08:12:00,41.9,31.0,29.92,SSE,167,6.0,17.0,65,0.00,,,0.00,25,WxPro DR1,2013-10-26 12:12:00,
2013-10-26 08:17:00,41.9,30.8,29.92,South,182,5.0,17.0,64,0.00,,,0.00,21,WxPro DR1,2013-10-26 12:17:00,
2013-10-26 08:22:00,42.0,31.0,29.92,SSE,157,6.0,17.0,65,0.00,,,0.00,16,WxPro DR1,2013-10-26 12:22:00,
2013-10-26 08:27:00,42.0,30.7,29.91,South,172,3.0,16.0,64,0.00,,,0.00,11,WxPro DR1,2013-10-26 12:27:00,
2013-10-26 08:32:00,42.0,31.1,29.91,South,182,4.0,14.0,65,0.00,,,0.00,14,WxPro DR1,2013-10-26 12:32:00,
2013-10-26 08:37:00,42.0,31.0,29.91,South,176,3.0,13.0,65,0.00,,,0.00,16,WxPro DR1,2013-10-26 12:37:00,
2013-10-26 08:42:00,42.0,31.1,29.91,South,182,0.0,13.0,65,0.00,,,0.00,18,WxPro DR1,2013-10-26 12:42:00,
2013-10-26 08:47:00,42.0,30.7,29.91,South,180,3.0,13.0,64,0.00,,,0.00,19,WxPro DR1,2013-10-26 12:47:00,
2013-10-26 08:52:00,42.0,30.7,29.91,SW,223,2.0,13.0,64,0.00,,,0.00,19,WxPro DR1,2013-10-26 12:52:00,
2013-10-26 08:57:00,42.0,30.8,29.91,South,186,2.0,18.0,64,0.00,,,0.00,26,WxPro DR1,2013-10-26 12:57:00,
2013-10-26 09:02:00,42.2,30.5,29.90,SSW,194,7.0,18.0,63,0.00,,,0.00,51,WxPro DR1,2013-10-26 13:02:00,
2013-10-26 09:07:00,42.3,31.0,29.90,South,174,2.0,17.0,64,0.00,,,0.00,33,WxPro DR1,2013-10-26 13:07:00,
2013-10-26 09:12:00,42.3,30.6,29.90,SSE,168,17.0,17.0,63,0.00,,,0.00,25,WxPro DR1,2013-10-26 13:12:00,
2013-10-26 09:17:00,42.3,30.6,29.89,SSW,201,6.0,22.0,63,0.00,,,0.00,25,WxPro DR1,2013-10-26 13:17:00,
2013-10-26 09:22:00,42.3,30.9,29.89,South,173,7.0,22.0,64,0.00,,,0.00,28,WxPro DR1,2013-10-26 13:22:00,
2013-10-26 09:27:00,42.3,30.6,29.89,SW,234,2.0,15.0,63,0.00,,,0.00,25,WxPro DR1,2013-10-26 13:27:00,
2013-10-26 09:32:00,42.3,30.7,29.89,South,183,4.0,11.0,63,0.00,,,0.00,28,WxPro DR1,2013-10-26 13:32:00,
2013-10-26 09:37:00,42.3,31.0,29.89,South,186,6.0,15.0,64,0.00,,,0.00,25,WxPro DR1,2013-10-26 13:37:00,
2013-10-26 09:42:00,42.3,30.7,29.89,SSW,192,5.0,18.0,63,0.00,,,0.00,25,WxPro DR1,2013-10-26 13:42:00,
2013-10-26 09:47:00,42.4,30.7,29.88,South,171,0.0,18.0,63,0.00,,,0.00,26,WxPro DR1,2013-10-26 13:47:00,
2013-10-26 09:52:00,42.4,30.7,29.88,South,183,11.0,18.0,63,0.00,,,0.00,25,WxPro DR1,2013-10-26 13:52:00,
2013-10-26 09:57:00,42.4,30.7,29.88,SSW,194,6.0,18.0,63,0.00,,,0.00,21,WxPro DR1,2013-10-26 13:57:00,
2013-10-26 10:02:00,42.4,30.7,29.87,South,175,3.0,15.0,63,0.00,,,0.00,26,WxPro DR1,2013-10-26 14:02:00,
2013-10-26 10:07:00,42.4,30.7,29.87,South,182,2.0,19.0,63,0.00,,,0.00,33,WxPro DR1,2013-10-26 14:07:00,
2013-10-26 10:12:00,42.4,30.8,29.87,WSW,240,3.0,19.0,63,0.00,,,0.00,33,WxPro DR1,2013-10-26 14:12:00,
2013-10-26 10:17:00,42.5,30.8,29.87,South,186,7.0,17.0,63,0.00,,,0.00,37,WxPro DR1,2013-10-26 14:17:00,
2013-10-26 10:22:00,42.5,30.9,29.86,South,171,3.0,17.0,63,0.00,,,0.00,47,WxPro DR1,2013-10-26 14:22:00,
2013-10-26 10:27:00,42.6,30.9,29.86,SSW,196,7.0,16.0,63,0.00,,,0.00,53,WxPro DR1,2013-10-26 14:27:00,
2013-10-26 10:32:00,42.7,31.0,29.86,South,183,2.0,16.0,63,0.00,,,0.00,49,WxPro DR1,2013-10-26 14:32:00,
2013-10-26 10:37:00,42.8,30.7,29.85,South,186,3.0,14.0,62,0.00,,,0.00,49,WxPro DR1,2013-10-26 14:37:00,
2013-10-26 10:42:00,42.9,30.8,29.85,South,186,3.0,14.0,62,0.00,,,0.00,54,WxPro DR1,2013-10-26 14:42:00,
2013-10-26 10:47:00,43.0,30.9,29.85,SSE,160,9.0,14.0,62,0.00,,,0.00,53,WxPro DR1,2013-10-26 14:47:00,
2013-10-26 10:52:00,43.1,31.1,29.85,South,190,0.0,20.0,62,0.00,,,0.00,56,WxPro DR1,2013-10-26 14:52:00,
2013-10-26 10:57:00,43.2,31.0,29.85,South,179,5.0,20.0,62,0.00,,,0.00,56,WxPro DR1,2013-10-26 14:57:00,
2013-10-26 11:02:00,43.3,31.1,29.84,SSW,196,2.0,19.0,62,0.00,,,0.00,74,WxPro DR1,2013-10-26 15:02:00,
2013-10-26 11:07:00,43.4,31.5,29.84,SE,135,1.0,19.0,63,0.00,,,0.00,67,WxPro DR1,2013-10-26 15:07:00,
2013-10-26 11:12:00,43.6,31.4,29.84,SSE,155,11.0,16.0,62,0.00,,,0.00,70,WxPro DR1,2013-10-26 15:12:00,
2013-10-26 11:17:00,43.7,31.2,29.84,South,176,10.0,16.0,61,0.00,,,0.00,65,WxPro DR1,2013-10-26 15:17:00,
2013-10-26 11:22:00,43.9,31.6,29.83,SSW,210,3.0,16.0,62,0.00,,,0.00,54,WxPro DR1,2013-10-26 15:22:00,
2013-10-26 11:27:00,44.0,31.0,29.83,South,178,1.0,14.0,60,0.00,,,0.00,53,WxPro DR1,2013-10-26 15:27:00,
2013-10-26 11:32:00,44.0,31.5,29.83,SSW,203,7.0,14.0,61,0.00,,,0.00,67,WxPro DR1,2013-10-26 15:32:00,
2013-10-26 11:37:00,44.1,31.1,29.83,South,189,4.0,12.0,60,0.00,,,0.00,62,WxPro DR1,2013-10-26 15:37:00,
2013-10-26 11:42:00,44.2,31.2,29.83,South,179,10.0,17.0,60,0.00,,,0.00,65,WxPro DR1,2013-10-26 15:42:00,
2013-10-26 11:47:00,44.3,31.7,29.83,SSW,213,5.0,17.0,61,0.00,,,0.00,76,WxPro DR1,2013-10-26 15:47:00,
2013-10-26 11:52:00,44.4,31.8,29.83,South,178,0.0,14.0,61,0.00,,,0.00,98,WxPro DR1,2013-10-26 15:52:00,
2013-10-26 11:57:00,44.5,31.9,29.83,South,191,3.0,14.0,61,0.00,,,0.00,83,WxPro DR1,2013-10-26 15:57:00,
2013-10-26 12:02:00,44.7,31.7,29.83,South,186,4.0,10.0,60,0.00,,,0.00,77,WxPro DR1,2013-10-26 16:02:00,
2013-10-26 12:07:00,44.9,31.6,29.82,SSW,206,3.0,17.0,59,0.00,,,0.00,63,WxPro DR1,2013-10-26 16:07:00,
2013-10-26 12:12:00,45.0,32.0,29.82,South,179,0.0,17.0,60,0.00,,,0.00,60,WxPro DR1,2013-10-26 16:12:00,
2013-10-26 12:17:00,45.2,31.7,29.82,SSW,193,0.0,7.0,59,0.00,,,0.00,60,WxPro DR1,2013-10-26 16:17:00,
2013-10-26 12:22:00,45.3,31.8,29.82,SSE,168,0.0,7.0,59,0.00,,,0.00,62,WxPro DR1,2013-10-26 16:22:00,
2013-10-26 12:27:00,45.4,32.0,29.82,SSE,165,2.0,6.0,59,0.00,,,0.00,63,WxPro DR1,2013-10-26 16:27:00,
2013-10-26 12:32:00,45.7,31.4,29.82,South,180,3.0,11.0,57,0.00,,,0.00,63,WxPro DR1,2013-10-26 16:32:00,
2013-10-26 12:37:00,45.9,31.5,29.82,South,177,1.0,11.0,57,0.00,,,0.00,65,WxPro DR1,2013-10-26 16:37:00,
2013-10-26 12:42:00,46.0,31.6,29.81,SSW,195,3.0,7.0,57,0.00,,,0.00,58,WxPro DR1,2013-10-26 16:42:00,
2013-10-26 12:47:00,46.1,31.7,29.82,South,189,1.0,10.0,57,0.00,,,0.00,58,WxPro DR1,2013-10-26 16:47:00,
2013-10-26 12:52:00,46.1,31.8,29.82,SW,221,1.0,10.0,57,0.00,,,0.00,65,WxPro DR1,2013-10-26 16:52:00,
2013-10-26 12:57:00,46.2,31.9,29.81,South,186,2.0,10.0,57,0.00,,,0.00,77,WxPro DR1,2013-10-26 16:57:00,
2013-10-26 13:02:00,46.3,31.9,29.81,SSW,194,0.0,10.0,57,0.00,,,0.00,95,WxPro DR1,2013-10-26 17:02:00,
2013-10-26 13:07:00,46.4,32.5,29.81,South,182,2.0,8.0,58,0.00,,,0.00,93,WxPro DR1,2013-10-26 17:07:00,
2013-10-26 13:12:00,46.6,31.8,29.81,SW,216,0.0,10.0,56,0.00,,,0.00,83,WxPro DR1,2013-10-26 17:12:00,
2013-10-26 13:17:00,46.8,32.2,29.81,SSW,195,2.0,11.0,57,0.00,,,0.00,86,WxPro DR1,2013-10-26 17:17:00,
2013-10-26 13:22:00,47.0,32.5,29.80,South,174,2.0,11.0,57,0.00,,,0.00,144,WxPro DR1,2013-10-26 17:22:00,
2013-10-26 13:27:00,47.1,32.3,29.80,SSW,192,2.0,10.0,56,0.00,,,0.00,135,WxPro DR1,2013-10-26 17:27:00,
2013-10-26 13:32:00,47.3,32.8,29.80,SSW,195,4.0,10.0,57,0.00,,,0.00,120,WxPro DR1,2013-10-26 17:32:00,
2013-10-26 13:37:00,47.5,32.2,29.80,South,179,3.0,12.0,55,0.00,,,0.00,118,WxPro DR1,2013-10-26 17:37:00,
2013-10-26 13:42:00,47.6,32.6,29.79,SSE,167,2.0,14.0,56,0.00,,,0.00,100,WxPro DR1,2013-10-26 17:42:00,
2013-10-26 13:47:00,47.6,32.7,29.79,South,182,1.0,14.0,56,0.00,,,0.00,107,WxPro DR1,2013-10-26 17:47:00,
2013-10-26 13:52:00,47.7,33.2,29.79,SSW,194,0.0,8.0,57,0.00,,,0.00,72,WxPro DR1,2013-10-26 17:52:00,
2013-10-26 13:57:00,47.7,33.2,29.79,SSE,156,3.0,9.0,57,0.00,,,0.00,62,WxPro DR1,2013-10-26 17:57:00,
2013-10-26 14:02:00,47.5,34.0,29.79,WSW,246,4.0,15.0,59,0.00,,,0.00,69,WxPro DR1,2013-10-26 18:02:00,
2013-10-26 14:07:00,47.1,34.4,29.79,WSW,258,13.0,21.0,61,0.00,,,0.00,65,WxPro DR1,2013-10-26 18:07:00,
2013-10-26 14:12:00,46.7,34.8,29.79,SW,221,9.0,21.0,63,0.00,,,0.00,67,WxPro DR1,2013-10-26 18:12:00,
2013-10-26 14:17:00,46.6,34.6,29.79,South,187,3.0,13.0,63,0.00,,,0.00,63,WxPro DR1,2013-10-26 18:17:00,
2013-10-26 14:22:00,46.6,34.5,29.80,WSW,248,6.0,19.0,62,0.00,,,0.00,60,WxPro DR1,2013-10-26 18:22:00,
2013-10-26 14:27:00,46.7,34.8,29.80,WSW,244,1.0,19.0,63,0.00,,,0.00,67,WxPro DR1,2013-10-26 18:27:00,
2013-10-26 14:32:00,46.7,34.7,29.80,SSW,192,0.0,17.0,63,0.00,,,0.00,90,WxPro DR1,2013-10-26 18:32:00,
2013-10-26 14:37:00,46.5,34.6,29.79,SW,225,3.0,17.0,63,0.00,,,0.00,62,WxPro DR1,2013-10-26 18:37:00,
2013-10-26 14:42:00,46.4,34.5,29.79,South,180,2.0,21.0,63,0.00,,,0.00,56,WxPro DR1,2013-10-26 18:42:00,
2013-10-26 14:47:00,46.2,35.1,29.80,SSW,194,6.0,21.0,65,0.00,,,0.00,53,WxPro DR1,2013-10-26 18:47:00,
2013-10-26 14:52:00,46.1,34.7,29.80,SSE,151,1.0,21.0,64,0.00,,,0.00,76,WxPro DR1,2013-10-26 18:52:00,
2013-10-26 14:57:00,46.2,34.9,29.80,South,179,0.0,21.0,65,0.00,,,0.00,69,WxPro DR1,2013-10-26 18:57:00,
2013-10-26 15:02:00,46.2,35.1,29.80,SSW,212,12.0,14.0,65,0.00,,,0.00,49,WxPro DR1,2013-10-26 19:02:00,
2013-10-26 15:07:00,46.1,35.3,29.80,SSE,152,4.0,15.0,66,0.00,,,0.00,53,WxPro DR1,2013-10-26 19:07:00,
2013-10-26 15:12:00,45.8,35.1,29.80,SSE,161,10.0,17.0,66,0.00,,,0.00,56,WxPro DR1,2013-10-26 19:12:00,
2013-10-26 15:17:00,45.6,35.2,29.80,SSE,163,6.0,17.0,67,0.00,,,0.00,53,WxPro DR1,2013-10-26 19:17:00,
2013-10-26 15:22:00,45.5,35.2,29.80,South,182,9.0,17.0,67,0.00,,,0.00,72,WxPro DR1,2013-10-26 19:22:00,
2013-10-26 15:27:00,45.5,35.6,29.80,WNW,284,9.0,9.0,68,0.00,,,0.00,67,WxPro DR1,2013-10-26 19:27:00,
2013-10-26 15:32:00,45.4,36.1,29.80,SW,223,0.0,14.0,70,0.00,,,0.00,54,WxPro DR1,2013-10-26 19:32:00,
2013-10-26 15:37:00,45.2,36.0,29.80,SW,221,1.0,14.0,70,0.00,,,0.00,54,WxPro DR1,2013-10-26 19:37:00,
2013-10-26 15:42:00,45.1,35.8,29.79,SSW,201,2.0,13.0,70,0.00,,,0.00,62,WxPro DR1,2013-10-26 19:42:00,
2013-10-26 15:47:00,45.1,35.6,29.80,SE,145,2.0,13.0,69,0.00,,,0.00,58,WxPro DR1,2013-10-26 19:47:00,
2013-10-26 15:52:00,45.2,35.6,29.79,SSE,147,5.0,11.0,69,0.00,,,0.00,63,WxPro DR1,2013-10-26 19:52:00,
2013-10-26 15:57:00,45.3,35.4,29.80,SW,223,4.0,13.0,68,0.00,,,0.00,54,WxPro DR1,2013-10-26 19:57:00,
2013-10-26 16:02:00,45.5,35.2,29.79,South,182,4.0,13.0,67,0.00,,,0.00,88,WxPro DR1,2013-10-26 20:02:00,
2013-10-26 16:07:00,45.7,35.2,29.79,South,183,2.0,13.0,66,0.00,,,0.00,91,WxPro DR1,2013-10-26 20:07:00,
2013-10-26 16:12:00,45.9,35.0,29.79,South,185,9.0,13.0,66,0.00,,,0.00,67,WxPro DR1,2013-10-26 20:12:00,
2013-10-26 16:17:00,46.1,34.6,29.79,SSW,207,0.0,18.0,64,0.00,,,0.00,44,WxPro DR1,2013-10-26 20:17:00,
2013-10-26 16:22:00,46.2,34.7,29.79,SSW,201,2.0,18.0,64,0.00,,,0.00,42,WxPro DR1,2013-10-26 20:22:00,
2013-10-26 16:27:00,46.2,34.7,29.79,SSE,165,3.0,11.0,64,0.00,,,0.00,35,WxPro DR1,2013-10-26 20:27:00,
2013-10-26 16:32:00,46.2,34.7,29.79,South,184,0.0,15.0,64,0.00,,,0.00,33,WxPro DR1,2013-10-26 20:32:00,
2013-10-26 16:37:00,46.3,34.5,29.79,SSE,159,1.0,15.0,63,0.00,,,0.00,33,WxPro DR1,2013-10-26 20:37:00,
2013-10-26 16:42:00,46.3,34.5,29.79,SW,225,3.0,20.0,63,0.00,,,0.00,33,WxPro DR1,2013-10-26 20:42:00,
2013-10-26 16:47:00,46.4,34.5,29.79,SW,221,1.0,21.0,63,0.00,,,0.00,39,WxPro DR1,2013-10-26 20:47:00,
2013-10-26 16:52:00,46.4,34.5,29.79,SW,235,9.0,21.0,63,0.00,,,0.00,44,WxPro DR1,2013-10-26 20:52:00,
2013-10-26 16:57:00,46.4,34.5,29.79,South,190,0.0,11.0,63,0.00,,,0.00,33,WxPro DR1,2013-10-26 20:57:00,
2013-10-26 17:02:00,46.4,34.5,29.79,WSW,240,2.0,11.0,63,0.00,,,0.00,32,WxPro DR1,2013-10-26 21:02:00,
2013-10-26 17:07:00,46.4,34.5,29.79,SE,145,3.0,12.0,63,0.00,,,0.00,46,WxPro DR1,2013-10-26 21:07:00,
2013-10-26 17:12:00,46.5,34.6,29.79,SSW,207,2.0,18.0,63,0.00,,,0.00,37,WxPro DR1,2013-10-26 21:12:00,
2013-10-26 17:17:00,46.5,34.6,29.78,WSW,237,7.0,18.0,63,0.00,,,0.00,23,WxPro DR1,2013-10-26 21:17:00,
2013-10-26 17:22:00,46.5,34.6,29.78,SSE,149,5.0,17.0,63,0.00,,,0.00,28,WxPro DR1,2013-10-26 21:22:00,
2013-10-26 17:27:00,46.5,34.6,29.78,SSE,153,4.0,15.0,63,0.00,,,0.00,23,WxPro DR1,2013-10-26 21:27:00,
2013-10-26 17:32:00,46.4,34.9,29.78,South,182,0.0,13.0,64,0.00,,,0.00,23,WxPro DR1,2013-10-26 21:32:00,
2013-10-26 17:37:00,46.3,34.5,29.78,WSW,242,2.0,15.0,63,0.00,,,0.00,16,WxPro DR1,2013-10-26 21:37:00,
2013-10-26 17:42:00,46.2,34.8,29.78,SSW,196,0.0,15.0,64,0.00,,,0.00,14,WxPro DR1,2013-10-26 21:42:00,
2013-10-26 17:47:00,46.1,35.0,29.78,South,184,2.0,14.0,65,0.00,,,0.00,14,WxPro DR1,2013-10-26 21:47:00,
2013-10-26 17:52:00,45.9,34.8,29.78,WSW,246,4.0,14.0,65,0.00,,,0.00,18,WxPro DR1,2013-10-26 21:52:00,
2013-10-26 17:57:00,45.8,35.1,29.78,SSE,166,3.0,9.0,66,0.00,,,0.00,14,WxPro DR1,2013-10-26 21:57:00,
2013-10-26 18:02:00,45.8,34.7,29.78,SSW,194,3.0,15.0,65,0.00,,,0.00,9,WxPro DR1,2013-10-26 22:02:00,
2013-10-26 18:07:00,45.8,35.1,29.78,SSW,201,3.0,15.0,66,0.00,,,0.00,0,WxPro DR1,2013-10-26 22:07:00,
2013-10-26 18:12:00,45.8,35.0,29.78,WSW,250,2.0,15.0,66,0.00,,,0.00,0,WxPro DR1,2013-10-26 22:12:00,
2013-10-26 18:17:00,45.9,34.8,29.78,SSW,211,4.0,15.0,65,0.00,,,0.00,0,WxPro DR1,2013-10-26 22:17:00,
2013-10-26 18:22:00,45.9,35.2,29.78,South,182,0.0,12.0,66,0.00,,,0.00,0,WxPro DR1,2013-10-26 22:22:00,
2013-10-26 18:27:00,45.8,35.1,29.78,South,189,6.0,13.0,66,0.00,,,0.00,0,WxPro DR1,2013-10-26 22:27:00,
2013-10-26 18:32:00,45.8,35.1,29.78,SE,146,4.0,13.0,66,0.00,,,0.00,0,WxPro DR1,2013-10-26 22:32:00,
2013-10-26 18:37:00,45.8,35.1,29.78,South,171,1.0,13.0,66,0.00,,,0.00,0,WxPro DR1,2013-10-26 22:37:00,
2013-10-26 18:42:00,45.8,35.1,29.78,SSE,164,1.0,13.0,66,0.00,,,0.00,0,WxPro DR1,2013-10-26 22:42:00,
2013-10-26 18:47:00,45.8,35.1,29.78,South,182,6.0,23.0,66,0.00,,,0.00,0,WxPro DR1,2013-10-26 22:47:00,
2013-10-26 18:52:00,45.8,35.1,29.78,South,184,4.0,23.0,66,0.00,,,0.00,0,WxPro DR1,2013-10-26 22:52:00,
2013-10-26 18:57:00,45.8,35.1,29.78,SW,216,3.0,14.0,66,0.00,,,0.00,0,WxPro DR1,2013-10-26 22:57:00,
2013-10-26 19:02:00,45.8,35.1,29.78,SW,221,0.0,16.0,66,0.00,,,0.00,0,WxPro DR1,2013-10-26 23:02:00,
2013-10-26 19:07:00,45.7,35.0,29.78,South,170,3.0,21.0,66,0.00,,,0.00,0,WxPro DR1,2013-10-26 23:07:00,
2013-10-26 19:12:00,45.7,35.0,29.78,SSW,211,4.0,21.0,66,0.00,,,0.00,0,WxPro DR1,2013-10-26 23:12:00,
2013-10-26 19:17:00,45.7,35.0,29.78,SW,222,4.0,15.0,66,0.00,,,0.00,0,WxPro DR1,2013-10-26 23:17:00,
2013-10-26 19:22:00,45.8,35.1,29.79,South,179,4.0,21.0,66,0.00,,,0.00,0,WxPro DR1,2013-10-26 23:22:00,
2013-10-26 19:27:00,45.8,35.1,29.79,SSW,199,2.0,21.0,66,0.00,,,0.00,0,WxPro DR1,2013-10-26 23:27:00,
2013-10-26 19:32:00,45.8,35.1,29.79,South,180,0.0,14.0,66,0.00,,,0.00,0,WxPro DR1,2013-10-26 23:32:00,
2013-10-26 19:37:00,45.8,34.7,29.78,SSW,205,1.0,14.0,65,0.00,,,0.00,0,WxPro DR1,2013-10-26 23:37:00,
2013-10-26 19:42:00,45.8,34.9,29.78,South,180,4.0,16.0,66,0.00,,,0.00,0,WxPro DR1,2013-10-26 23:42:00,
2013-10-26 19:47:00,45.8,34.8,29.78,South,182,9.0,16.0,65,0.00,,,0.00,0,WxPro DR1,2013-10-26 23:47:00,
2013-10-26 19:52:00,45.7,35.0,29.78,SSE,167,0.0,12.0,66,0.00,,,0.00,0,WxPro DR1,2013-10-26 23:52:00,
2013-10-26 19:57:00,45.7,35.0,29.78,SSE,153,4.0,9.0,66,0.00,,,0.00,0,WxPro DR1,2013-10-26 23:57:00,
2013-10-26 20:02:00,45.6,34.9,29.78,SSE,163,0.0,12.0,66,0.00,,,0.00,0,WxPro DR1,2013-10-27 00:02:00,
2013-10-26 20:07:00,45.6,34.8,29.78,SSW,195,1.0,12.0,66,0.00,,,0.00,0,WxPro DR1,2013-10-27 00:07:00,
2013-10-26 20:12:00,45.6,34.9,29.79,SW,232,5.0,12.0,66,0.00,,,0.00,0,WxPro DR1,2013-10-27 00:12:00,
2013-10-26 20:17:00,45.5,34.8,29.78,SW,214,5.0,12.0,66,0.00,,,0.00,0,WxPro DR1,2013-10-27 00:17:00,
2013-10-26 20:22:00,45.5,34.8,29.78,SSW,194,6.0,12.0,66,0.00,,,0.00,0,WxPro DR1,2013-10-27 00:22:00,
2013-10-26 20:27:00,45.4,34.8,29.78,WSW,244,0.0,12.0,66,0.00,,,0.00,0,WxPro DR1,2013-10-27 00:27:00,
2013-10-26 20:32:00,45.3,35.0,29.78,South,172,0.0,12.0,67,0.00,,,0.00,0,WxPro DR1,2013-10-27 00:32:00,
2013-10-26 20:37:00,45.2,34.9,29.78,South,186,0.0,10.0,67,0.00,,,0.00,0,WxPro DR1,2013-10-27 00:37:00,
2013-10-26 20:42:00,45.1,34.8,29.78,SSW,207,0.0,8.0,67,0.00,,,0.00,0,WxPro DR1,2013-10-27 00:42:00,
2013-10-26 20:47:00,45.0,34.7,29.78,South,184,3.0,7.0,67,0.00,,,0.00,0,WxPro DR1,2013-10-27 00:47:00,
2013-10-26 20:52:00,45.1,34.8,29.79,SSW,211,0.0,9.0,67,0.00,,,0.00,0,WxPro DR1,2013-10-27 00:52:00,
2013-10-26 20:57:00,45.2,34.9,29.79,SSW,194,1.0,15.0,67,0.00,,,0.00,0,WxPro DR1,2013-10-27 00:57:00,
2013-10-26 21:02:00,45.3,35.0,29.79,SSE,164,0.0,15.0,67,0.00,,,0.00,0,WxPro DR1,2013-10-27 01:02:00,
2013-10-26 21:07:00,45.3,35.0,29.79,SW,225,3.0,11.0,67,0.00,,,0.00,0,WxPro DR1,2013-10-27 01:07:00,
2013-10-26 21:12:00,45.3,35.0,29.79,West,267,0.0,11.0,67,0.00,,,0.00,0,WxPro DR1,2013-10-27 01:12:00,
2013-10-26 21:17:00,45.2,35.3,29.79,West,259,1.0,10.0,68,0.00,,,0.00,0,WxPro DR1,2013-10-27 01:17:00,
2013-10-26 21:22:00,45.1,35.2,29.79,SSE,163,5.0,6.0,68,0.00,,,0.00,0,WxPro DR1,2013-10-27 01:22:00,
2013-10-26 21:27:00,45.0,35.1,29.79,SSW,211,0.0,6.0,68,0.00,,,0.00,0,WxPro DR1,2013-10-27 01:27:00,
2013-10-26 21:32:00,45.0,35.4,29.79,SSE,161,4.0,6.0,69,0.00,,,0.00,0,WxPro DR1,2013-10-27 01:32:00,
2013-10-26 21:37:00,44.7,36.0,29.80,South,185,3.0,13.0,71,0.00,,,0.00,0,WxPro DR1,2013-10-27 01:37:00,
2013-10-26 21:42:00,44.3,36.5,29.80,SSE,159,2.0,13.0,74,0.00,,,0.00,0,WxPro DR1,2013-10-27 01:42:00,
2013-10-26 21:47:00,43.9,36.7,29.80,South,176,0.0,7.0,76,0.00,,,0.00,0,WxPro DR1,2013-10-27 01:47:00,
2013-10-26 21:52:00,43.5,36.8,29.80,WSW,251,2.0,7.0,77,0.00,,,0.00,0,WxPro DR1,2013-10-27 01:52:00,
2013-10-26 21:57:00,43.3,36.8,29.80,SW,216,0.0,7.0,78,0.00,,,0.00,0,WxPro DR1,2013-10-27 01:57:00,
2013-10-26 22:02:00,43.2,36.8,29.80,SSW,195,0.0,6.0,78,0.00,,,0.00,0,WxPro DR1,2013-10-27 02:02:00,
2013-10-26 22:07:00,43.1,37.0,29.80,SW,234,0.0,6.0,79,0.00,,,0.00,0,WxPro DR1,2013-10-27 02:07:00,
2013-10-26 22:12:00,43.0,36.9,29.80,SSW,202,0.0,6.0,79,0.00,,,0.00,0,WxPro DR1,2013-10-27 02:12:00,
2013-10-26 22:17:00,42.9,36.8,29.80,WSW,255,5.0,6.0,79,0.00,,,0.00,0,WxPro DR1,2013-10-27 02:17:00,
2013-10-26 22:22:00,42.9,36.8,29.80,South,176,0.0,7.0,79,0.00,,,0.00,0,WxPro DR1,2013-10-27 02:22:00,
2013-10-26 22:27:00,42.8,37.0,29.79,SSW,193,2.0,7.0,80,0.00,,,0.00,0,WxPro DR1,2013-10-27 02:27:00,
2013-10-26 22:32:00,42.8,37.0,29.80,South,181,0.0,8.0,80,0.00,,,0.00,0,WxPro DR1,2013-10-27 02:32:00,
2013-10-26 22:37:00,42.7,37.0,29.79,South,182,4.0,9.0,80,0.00,,,0.00,0,WxPro DR1,2013-10-27 02:37:00,
2013-10-26 22:42:00,42.6,36.9,29.80,SSE,157,2.0,9.0,80,0.00,,,0.00,0,WxPro DR1,2013-10-27 02:42:00,
2013-10-26 22:47:00,42.6,36.9,29.80,South,171,1.0,7.0,80,0.00,,,0.00,0,WxPro DR1,2013-10-27 02:47:00,
2013-10-26 22:52:00,42.6,36.9,29.80,South,182,0.0,9.0,80,0.00,,,0.00,0,WxPro DR1,2013-10-27 02:52:00,
2013-10-26 22:57:00,42.6,37.2,29.80,SW,231,1.0,9.0,81,0.00,,,0.00,0,WxPro DR1,2013-10-27 02:57:00,
2013-10-26 23:02:00,42.6,37.2,29.80,South,191,0.0,6.0,81,0.00,,,0.00,0,WxPro DR1,2013-10-27 03:02:00,
2013-10-26 23:07:00,42.5,37.4,29.80,West,274,1.0,10.0,82,0.00,,,0.00,0,WxPro DR1,2013-10-27 03:07:00,
2013-10-26 23:12:00,42.5,37.4,29.80,WSW,243,1.0,10.0,82,0.00,,,0.00,0,WxPro DR1,2013-10-27 03:12:00,
2013-10-26 23:17:00,42.4,37.6,29.80,SW,230,0.0,6.0,83,0.00,,,0.00,0,WxPro DR1,2013-10-27 03:17:00,
2013-10-26 23:22:00,42.4,37.6,29.80,South,174,1.0,9.0,83,0.00,,,0.00,0,WxPro DR1,2013-10-27 03:22:00,
2013-10-26 23:27:00,42.4,37.6,29.80,South,180,3.0,9.0,83,0.00,,,0.00,0,WxPro DR1,2013-10-27 03:27:00,
2013-10-26 23:32:00,42.4,37.6,29.80,West,269,2.0,9.0,83,0.00,,,0.00,0,WxPro DR1,2013-10-27 03:32:00,
2013-10-26 23:37:00,42.3,37.5,29.80,SW,228,0.0,10.0,83,0.00,,,0.00,0,WxPro DR1,2013-10-27 03:37:00,
2013-10-26 23:42:00,42.2,37.5,29.80,WSW,256,4.0,10.0,83,0.00,,,0.00,0,WxPro DR1,2013-10-27 03:42:00,
2013-10-26 23:47:00,42.2,37.7,29.81,South,186,0.0,7.0,84,0.00,,,0.00,0,WxPro DR1,2013-10-27 03:47:00,
2013-10-26 23:52:00,42.1,37.6,29.81,SSW,192,1.0,7.0,84,0.00,,,0.00,0,WxPro DR1,2013-10-27 03:52:00,
2013-10-26 23:57:00,42.0,37.8,29.81,SSW,198,0.0,9.0,85,0.00,,,0.00,0,WxPro DR1,2013-10-27 03:57:00,